createdAt,value
2019-05-11T00:00:01.705Z,4.83
2019-05-11T00:05:10.568Z,4.79
2019-05-11T00:10:18.349Z,5.14
2019-05-11T00:15:28.229Z,5.08
2019-05-11T00:20:36.084Z,5.06
2019-05-11T00:25:46.777Z,5.28
2019-05-11T00:30:44.900Z,4.61
2019-05-11T00:35:52.642Z,4.88
2019-05-11T00:41:00.532Z,4.58
2019-05-11T00:46:08.307Z,4.41
2019-05-11T00:51:16.112Z,4.56
2019-05-11T00:56:24.361Z,4.22
2019-05-11T01:01:32.513Z,4.39
2019-05-11T01:06:41.567Z,4.45
2019-05-11T01:11:49.700Z,4.43
2019-05-11T01:16:57.782Z,4.37
2019-05-11T01:22:07.336Z,4.38
2019-05-11T01:27:15.087Z,4.25
2019-05-11T01:32:23.894Z,4.62
2019-05-11T01:37:33.147Z,4.28
2019-05-11T01:42:40.887Z,5.14
2019-05-11T01:47:49.974Z,5.63
2019-05-11T01:53:04.670Z,4.57
2019-05-11T01:58:02.815Z,4.95
2019-05-11T02:03:10.616Z,5.52
2019-05-11T02:08:18.734Z,5.33
2019-05-11T02:13:26.594Z,5.45
2019-05-11T02:18:34.831Z,5.65
2019-05-11T02:23:42.748Z,5.51
2019-05-11T02:28:57.711Z,5.70
2019-05-11T02:33:55.737Z,5.67
2019-05-11T02:39:04.933Z,5.65
2019-05-11T02:44:12.692Z,5.96
2019-05-11T02:49:20.636Z,5.93
2019-05-11T02:54:28.540Z,5.64
2019-05-11T02:59:36.369Z,6.31
2019-05-11T03:04:44.446Z,6.11
2019-05-11T03:09:54.717Z,6.43
2019-05-11T03:14:52.539Z,5.89
2019-05-11T03:20:00.402Z,5.87
2019-05-11T03:25:08.264Z,6.07
2019-05-11T03:30:16.122Z,6.07
2019-05-11T03:35:24.414Z,5.60
2019-05-11T03:40:32.394Z,5.91
2019-05-11T03:45:40.337Z,5.91
2019-05-11T03:50:48.098Z,6.13
2019-05-11T03:55:55.911Z,5.77
2019-05-11T04:01:03.718Z,5.93
2019-05-11T04:06:11.982Z,5.88
2019-05-11T04:11:19.956Z,6.03
2019-05-11T04:16:28.116Z,6.61
2019-05-11T04:21:35.886Z,6.79
2019-05-11T04:26:43.673Z,6.74
2019-05-11T04:31:52.534Z,6.61
2019-05-11T04:37:01.786Z,6.20
2019-05-11T04:42:09.624Z,6.57
2019-05-11T04:47:17.381Z,6.45
2019-05-11T04:52:25.082Z,6.67
2019-05-11T04:57:34.426Z,6.04
2019-05-11T05:02:42.757Z,5.90
2019-05-11T05:07:51.015Z,5.85
2019-05-11T05:13:10.172Z,5.49
2019-05-11T05:18:06.326Z,6.15
2019-05-11T05:23:15.198Z,6.26
2019-05-11T05:28:23.447Z,5.43
2019-05-11T05:33:31.280Z,5.85
2019-05-11T05:38:39.433Z,5.51
2019-05-11T05:43:47.386Z,5.40
2019-05-11T05:48:55.318Z,5.05
2019-05-11T05:54:04.153Z,5.24
2019-05-11T05:59:12.007Z,4.87
2019-05-11T06:04:20.217Z,5.25
2019-05-11T06:09:29.348Z,5.09
2019-05-11T06:14:37.462Z,4.71
2019-05-11T06:19:45.596Z,4.83
2019-05-11T06:24:53.544Z,4.45
2019-05-11T06:30:01.427Z,4.52
2019-05-11T06:35:09.416Z,4.45
2019-05-11T06:40:17.725Z,4.05
2019-05-11T06:45:25.490Z,3.75
2019-05-11T06:50:34.350Z,3.74
2019-05-11T06:55:42.697Z,3.95
2019-05-11T07:00:51.567Z,3.83
2019-05-11T07:06:01.291Z,3.47
2019-05-11T07:11:09.363Z,3.50
2019-05-11T07:16:17.431Z,3.38
2019-05-11T07:21:25.687Z,3.57
2019-05-11T07:26:33.564Z,2.95
2019-05-11T07:31:41.325Z,2.80
2019-05-11T07:36:49.530Z,3.03
2019-05-11T07:41:58.452Z,2.91
2019-05-11T07:47:04.730Z,2.57
2019-05-11T07:52:12.903Z,2.62
2019-05-11T07:57:21.200Z,2.63
2019-05-11T08:02:32.308Z,2.60
2019-05-11T08:07:38.299Z,2.82
2019-05-11T08:12:48.044Z,2.62
2019-05-11T08:17:53.934Z,3.05
2019-05-11T08:23:02.142Z,2.95
2019-05-11T08:28:12.126Z,3.28
2019-05-11T08:33:18.292Z,2.85
2019-05-11T08:38:25.292Z,2.93
2019-05-11T08:43:38.701Z,2.73
2019-05-11T08:48:34.009Z,2.73
2019-05-11T08:53:41.748Z,2.64
2019-05-11T08:58:49.527Z,2.70
2019-05-11T09:03:58.349Z,2.94
2019-05-11T09:09:05.138Z,2.55
2019-05-11T09:14:12.941Z,2.90
2019-05-11T09:19:22.442Z,2.54
2019-05-11T09:24:30.294Z,2.73
2019-05-11T09:29:38.735Z,2.33
2019-05-11T09:34:45.609Z,2.91
2019-05-11T09:39:55.406Z,2.40
2019-05-11T09:45:04.673Z,2.65
2019-05-11T09:50:14.752Z,2.60
2019-05-11T09:55:12.575Z,2.66
2019-05-11T10:00:20.284Z,2.44
2019-05-11T10:05:28.730Z,2.53
2019-05-11T10:10:35.517Z,2.21
2019-05-11T10:15:43.442Z,2.40
2019-05-11T10:20:51.227Z,2.11
2019-05-11T10:26:02.449Z,2.24
2019-05-11T10:31:01.709Z,2.36
2019-05-11T10:36:15.669Z,2.52
2019-05-11T10:41:20.386Z,2.06
2019-05-11T10:46:23.303Z,2.22
2019-05-11T10:51:30.419Z,2.14
2019-05-11T10:56:28.642Z,2.14
2019-05-11T11:01:38.140Z,2.25
2019-05-11T11:06:45.107Z,2.42
2019-05-11T11:11:57.742Z,2.26
2019-05-11T11:17:02.885Z,2.35
2019-05-11T11:22:35.458Z,2.55
2019-05-11T11:27:18.507Z,1.85
2019-05-11T11:32:28.076Z,1.68
2019-05-11T11:37:25.566Z,1.73
2019-05-11T11:42:33.576Z,1.61
2019-05-11T11:47:41.447Z,1.95
2019-05-11T11:52:49.303Z,1.73
2019-05-11T11:57:58.867Z,1.73
2019-05-11T12:03:04.502Z,1.75
2019-05-11T12:08:13.017Z,1.67
2019-05-11T12:13:21.533Z,1.90
2019-05-11T12:18:29.291Z,1.84
2019-05-11T12:23:38.381Z,1.80
2019-05-11T12:28:48.709Z,1.86
2019-05-11T12:33:53.907Z,1.95
2019-05-11T12:39:01.708Z,1.92
2019-05-11T12:44:09.711Z,2.03
2019-05-11T12:49:18.833Z,1.80
2019-05-11T12:54:28.010Z,1.87
2019-05-11T12:59:34.226Z,2.05
2019-05-11T13:04:42.490Z,1.90
2019-05-11T13:09:50.778Z,1.67
2019-05-11T13:14:59.582Z,1.76
2019-05-11T13:20:08.701Z,1.80
2019-05-11T13:25:15.006Z,1.81
2019-05-11T13:30:23.130Z,2.10
2019-05-11T13:35:31.953Z,1.75
2019-05-11T13:40:39.715Z,1.88
2019-05-11T13:45:48.095Z,1.95
2019-05-11T13:50:58.075Z,1.83
2019-05-11T13:56:03.223Z,1.91
2019-05-11T14:01:11.635Z,1.93
2019-05-11T14:06:19.438Z,1.67
2019-05-11T14:11:28.649Z,1.91
2019-05-11T14:16:34.802Z,1.72
2019-05-11T14:21:42.779Z,2.38
2019-05-11T14:26:51.959Z,1.62
2019-05-11T14:31:59.918Z,2.08
2019-05-11T14:37:08.776Z,2.05
2019-05-11T14:42:16.431Z,1.75
2019-05-11T14:47:24.332Z,1.77
2019-05-11T14:52:32.162Z,1.93
2019-05-11T14:57:41.586Z,1.86
2019-05-11T15:02:50.081Z,1.74
2019-05-11T15:07:58.214Z,1.67
2019-05-11T15:13:04.122Z,1.74
2019-05-11T15:18:11.810Z,1.97
2019-05-11T15:23:19.495Z,1.66
2019-05-11T15:28:28.529Z,1.99
2019-05-11T15:33:34.281Z,1.76
2019-05-11T15:38:42.136Z,2.08
2019-05-11T15:43:49.757Z,1.83
2019-05-11T15:49:03.093Z,1.91
2019-05-11T15:54:04.680Z,2.07
2019-05-11T15:59:12.339Z,1.81
2019-05-11T16:04:20.185Z,2.44
2019-05-11T16:09:29.064Z,2.17
2019-05-11T16:14:35.129Z,1.85
2019-05-11T16:19:43.081Z,2.21
2019-05-11T16:24:51.037Z,2.03
2019-05-11T16:29:58.837Z,2.09
2019-05-11T16:35:08.806Z,1.97
2019-05-11T16:40:13.809Z,2.00
2019-05-11T16:45:23.764Z,2.02
2019-05-11T16:50:28.995Z,1.89
2019-05-11T16:55:37.692Z,2.16
2019-05-11T17:00:44.221Z,1.84
2019-05-11T17:05:52.977Z,1.73
2019-05-11T17:11:00.771Z,2.04
2019-05-11T17:16:08.878Z,2.20
2019-05-11T17:21:18.072Z,2.57
2019-05-11T17:26:23.304Z,2.43
2019-05-11T17:31:32.089Z,2.46
2019-05-11T17:36:39.741Z,2.36
2019-05-11T17:41:47.963Z,2.50
2019-05-11T17:46:54.639Z,2.58
2019-05-11T17:52:02.379Z,2.16
2019-05-11T17:57:10.159Z,2.23
2019-05-11T18:02:18.221Z,2.23
2019-05-11T18:07:27.801Z,2.07
2019-05-11T18:12:32.473Z,2.07
2019-05-11T18:17:40.300Z,2.11
2019-05-11T18:22:49.062Z,2.31
2019-05-11T18:27:55.307Z,2.14
2019-05-11T18:33:03.033Z,2.32
2019-05-11T18:38:10.653Z,2.54
2019-05-11T18:43:18.908Z,2.19
2019-05-11T18:48:25.622Z,2.03
2019-05-11T18:53:33.312Z,2.26
2019-05-11T18:58:41.032Z,2.19
2019-05-11T19:03:48.760Z,2.04
2019-05-11T19:08:58.112Z,2.24
2019-05-11T19:14:03.617Z,2.24
2019-05-11T19:19:11.292Z,2.07
2019-05-11T19:24:19.134Z,2.37
2019-05-11T19:29:28.295Z,2.29
2019-05-11T19:34:35.058Z,2.86
2019-05-11T19:39:42.894Z,2.79
2019-05-11T19:44:50.654Z,2.74
2019-05-11T19:49:58.405Z,2.63
2019-05-11T19:55:08.412Z,2.55
2019-05-11T20:00:13.413Z,2.56
2019-05-11T20:05:21.149Z,3.11
2019-05-11T20:10:28.793Z,3.57
2019-05-11T20:15:38.086Z,3.32
2019-05-11T20:20:43.613Z,3.01
2019-05-11T20:25:51.253Z,3.03
2019-05-11T20:30:59.094Z,2.88
2019-05-11T20:36:08.717Z,5.01
2019-05-11T20:41:13.976Z,3.20
2019-05-11T20:46:21.683Z,2.87
2019-05-11T20:51:36.591Z,2.96
2019-05-11T20:56:38.638Z,2.95
2019-05-11T21:01:44.137Z,3.26
2019-05-11T21:06:51.902Z,2.95
2019-05-11T21:12:02.787Z,2.86
2019-05-11T21:17:08.903Z,2.99
2019-05-11T21:22:14.444Z,3.14
2019-05-11T21:27:22.041Z,3.62
2019-05-11T21:32:29.686Z,3.47
2019-05-11T21:37:38.747Z,3.13
2019-05-11T21:42:44.837Z,3.67
2019-05-11T21:47:52.517Z,3.67
2019-05-11T21:53:00.208Z,3.41
2019-05-11T21:58:09.011Z,2.92
2019-05-11T22:03:15.099Z,3.25
2019-05-11T22:08:22.781Z,3.26
2019-05-11T22:13:30.386Z,3.03
2019-05-11T22:18:38.117Z,3.03
2019-05-11T22:23:47.451Z,2.97
2019-05-11T22:28:52.994Z,3.04
2019-05-11T22:34:00.745Z,3.16
2019-05-11T22:39:08.527Z,2.99
2019-05-11T22:44:18.144Z,3.38
2019-05-11T22:49:23.621Z,3.09
2019-05-11T22:54:31.353Z,3.30
2019-05-11T22:59:39.165Z,3.31
2019-05-11T23:04:48.488Z,3.15
2019-05-11T23:09:54.083Z,2.92
2019-05-11T23:15:01.982Z,3.22
2019-05-11T23:20:09.822Z,3.06
2019-05-11T23:25:18.431Z,3.16
2019-05-11T23:30:24.629Z,3.04
2019-05-11T23:35:32.400Z,3.31
2019-05-11T23:40:40.001Z,3.25
2019-05-11T23:45:47.709Z,3.25
2019-05-11T23:50:57.899Z,3.24
2019-05-11T23:56:02.757Z,3.49
